createdAt,value
2023-03-01T00:01:48.906Z,95335.91
2023-03-01T00:04:16.949Z,95334.66
2023-03-01T00:06:47.069Z,95326.56
2023-03-01T00:09:15.421Z,95320.75
2023-03-01T00:11:43.752Z,95325.28
2023-03-01T00:14:13.399Z,95328.47
2023-03-01T00:16:43.864Z,95330.41
2023-03-01T00:19:15.219Z,95332.66
2023-03-01T00:21:43.595Z,95325.88
2023-03-01T00:24:13.916Z,95324.25
2023-03-01T00:26:42.079Z,95339.38
2023-03-01T00:29:09.968Z,95334.38
2023-03-01T00:31:39.232Z,95330.41
2023-03-01T00:34:07.521Z,95327.50
2023-03-01T00:36:37.131Z,95329.19
2023-03-01T00:39:06.317Z,95321.44
2023-03-01T00:41:35.593Z,95316.78
2023-03-01T00:44:04.041Z,95317.75
2023-03-01T00:46:32.553Z,95327.22
2023-03-01T00:49:03.427Z,95325.59
2023-03-01T00:51:31.639Z,95325.59
2023-03-01T00:54:02.475Z,95324.63
2023-03-01T00:56:31.607Z,95329.44
2023-03-01T00:58:59.874Z,95331.06
2023-03-01T01:01:31.606Z,95326.56
2023-03-01T01:04:01.346Z,95322.06
2023-03-01T01:06:33.267Z,95313.66
2023-03-01T01:09:01.858Z,95310.75
2023-03-01T01:11:31.579Z,95307.91
2023-03-01T01:14:01.072Z,95310.19
2023-03-01T01:16:31.962Z,95300.88
2023-03-01T01:19:00.274Z,95299.22
2023-03-01T01:21:30.777Z,95291.47
2023-03-01T01:23:59.347Z,95300.78
2023-03-01T01:26:29.883Z,95297.84
2023-03-01T01:28:58.541Z,95297.84
2023-03-01T01:31:27.275Z,95296.94
2023-03-01T01:33:56.030Z,95291.69
2023-03-01T01:36:24.331Z,95299.53
2023-03-01T01:38:54.046Z,95291.75
2023-03-01T01:41:22.739Z,95282.38
2023-03-01T01:44:12.368Z,95274.94
2023-03-01T01:46:42.871Z,95269.72
2023-03-01T01:49:28.829Z,95266.41
2023-03-01T01:52:04.255Z,95264.59
2023-03-01T01:54:42.284Z,95267.13
2023-03-01T01:57:15.460Z,95261.03
2023-03-01T01:59:47.673Z,95257.50
2023-03-01T02:02:16.351Z,95259.78
2023-03-01T02:04:44.828Z,95258.78
2023-03-01T02:07:17.968Z,95256.47
2023-03-01T02:09:50.528Z,95251.69
2023-03-01T02:12:22.464Z,95244.22
2023-03-01T02:14:50.518Z,95242.97
2023-03-01T02:17:20.529Z,95235.06
2023-03-01T02:20:02.612Z,95232.19
2023-03-01T02:22:33.982Z,95228.56
2023-03-01T02:25:14.617Z,95230.44
2023-03-01T02:27:53.115Z,95215.59
2023-03-01T02:30:24.456Z,95221.66
2023-03-01T02:32:53.852Z,95217.63
2023-03-01T02:35:22.779Z,95209.28
2023-03-01T02:37:51.045Z,95208.25
2023-03-01T02:40:22.698Z,95202.09
2023-03-01T02:42:54.721Z,95194.41
2023-03-01T02:45:24.365Z,95200.19
2023-03-01T02:47:55.709Z,95199.50
2023-03-01T02:50:41.701Z,95195.69
2023-03-01T02:53:17.252Z,95186.00
2023-03-01T02:55:45.446Z,95182.72
2023-03-01T02:58:13.629Z,95179.72
2023-03-01T03:00:46.561Z,95190.53
2023-03-01T03:03:17.259Z,95178.66
2023-03-01T03:05:45.508Z,95173.44
2023-03-01T03:08:13.665Z,95171.63
2023-03-01T03:10:43.959Z,95184.69
2023-03-01T03:13:14.011Z,95179.88
2023-03-01T03:15:44.698Z,95177.94
2023-03-01T03:18:14.943Z,95181.13
2023-03-01T03:20:44.427Z,95175.63
2023-03-01T03:23:12.901Z,95173.69
2023-03-01T03:25:41.347Z,95179.97
2023-03-01T03:28:11.558Z,95172.44
2023-03-01T03:30:41.429Z,95166.66
2023-03-01T03:33:13.663Z,95174.03
2023-03-01T03:35:44.171Z,95165.31
2023-03-01T03:38:17.764Z,95165.31
2023-03-01T03:40:48.073Z,95167.00
2023-03-01T03:43:18.520Z,95159.03
2023-03-01T03:45:47.579Z,95168.59
2023-03-01T03:48:17.576Z,95168.09
2023-03-01T03:50:50.622Z,95159.75
2023-03-01T03:53:18.903Z,95159.38
2023-03-01T03:55:50.163Z,95158.97
2023-03-01T03:58:20.681Z,95154.78
2023-03-01T04:00:50.321Z,95161.84
2023-03-01T04:03:21.246Z,95162.47
2023-03-01T04:05:51.405Z,95153.81
2023-03-01T04:08:21.026Z,95157.31
2023-03-01T04:10:50.798Z,95159.81
2023-03-01T04:13:20.824Z,95154.66
2023-03-01T04:15:50.181Z,95163.72
2023-03-01T04:18:21.916Z,95153.50
2023-03-01T04:20:50.424Z,95144.66
2023-03-01T04:23:21.636Z,95144.16
2023-03-01T04:25:54.634Z,95137.50
2023-03-01T04:28:25.400Z,95135.38
2023-03-01T04:30:54.201Z,95134.50
2023-03-01T04:33:24.619Z,95131.31
2023-03-01T04:35:52.898Z,95135.91
2023-03-01T04:38:22.311Z,95140.38
2023-03-01T04:40:50.417Z,95134.97
2023-03-01T04:43:18.691Z,95128.34
2023-03-01T04:45:46.679Z,95138.31
2023-03-01T04:48:14.568Z,95125.69
2023-03-01T04:50:43.852Z,95121.59
2023-03-01T04:53:11.735Z,95128.00
2023-03-01T04:55:39.639Z,95130.84
2023-03-01T04:58:07.565Z,95120.19
2023-03-01T05:00:35.499Z,95128.09
2023-03-01T05:03:03.928Z,95124.09
2023-03-01T05:05:34.737Z,95128.00
2023-03-01T05:08:06.292Z,95123.13
2023-03-01T05:10:36.520Z,95121.34
2023-03-01T05:13:05.216Z,95122.16
2023-03-01T05:15:33.937Z,95118.16
2023-03-01T05:18:02.457Z,95115.41
2023-03-01T05:20:31.753Z,95117.69
2023-03-01T05:23:01.183Z,95106.41
2023-03-01T05:25:34.120Z,95107.38
2023-03-01T05:28:05.298Z,95116.66
2023-03-01T05:30:33.868Z,95110.25
2023-03-01T05:33:02.186Z,95100.41
2023-03-01T05:35:33.624Z,95110.47
2023-03-01T05:38:01.620Z,95108.47
2023-03-01T05:40:30.995Z,95101.44
2023-03-01T05:42:59.188Z,95097.56
2023-03-01T05:45:28.933Z,95113.00
2023-03-01T05:47:57.839Z,95113.00
2023-03-01T05:50:28.230Z,95113.34
2023-03-01T05:53:00.120Z,95101.66
2023-03-01T05:55:30.728Z,95107.13
2023-03-01T05:58:00.681Z,95103.38
2023-03-01T06:00:29.508Z,95104.19
2023-03-01T06:02:58.024Z,95106.13
2023-03-01T06:05:27.077Z,95097.78
2023-03-01T06:07:55.079Z,95102.94
2023-03-01T06:10:24.500Z,95103.84
2023-03-01T06:12:53.801Z,95095.47
2023-03-01T06:15:22.454Z,95098.91
2023-03-01T06:17:51.277Z,95101.00
2023-03-01T06:20:21.596Z,95104.53
2023-03-01T06:22:51.180Z,95114.25
2023-03-01T06:25:21.346Z,95115.88
2023-03-01T06:27:50.146Z,95107.16
2023-03-01T06:30:22.310Z,95113.91
2023-03-01T06:32:50.368Z,95118.16
2023-03-01T06:35:19.914Z,95114.81
2023-03-01T06:37:49.190Z,95114.38
2023-03-01T06:40:17.944Z,95112.38
2023-03-01T06:42:50.144Z,95105.47
2023-03-01T06:45:20.679Z,95098.47
2023-03-01T06:47:49.159Z,95108.41
2023-03-01T06:50:18.162Z,95106.47
2023-03-01T06:55:15.437Z,95118.94
2023-03-01T06:57:43.369Z,95109.00
2023-03-01T07:00:12.626Z,95113.56
2023-03-01T07:02:42.115Z,95118.34
2023-03-01T07:05:10.429Z,95111.16
2023-03-01T07:07:38.342Z,95113.00
2023-03-01T07:10:07.517Z,95106.94
2023-03-01T07:12:35.506Z,95102.81
2023-03-01T07:15:03.397Z,95104.31
2023-03-01T07:17:31.423Z,95105.97
2023-03-01T07:20:00.706Z,95097.09
2023-03-01T07:22:28.724Z,95099.03
2023-03-01T07:24:56.881Z,95097.44
2023-03-01T07:27:24.791Z,95100.06
2023-03-01T07:29:52.742Z,95091.00
2023-03-01T07:32:20.766Z,95098.34
2023-03-01T07:34:48.837Z,95093.19
2023-03-01T07:37:18.117Z,95099.84
2023-03-01T07:39:46.142Z,95092.97
2023-03-01T07:42:14.057Z,95097.09
2023-03-01T07:44:42.004Z,95087.50
2023-03-01T07:47:09.948Z,95095.06
2023-03-01T07:49:37.834Z,95094.88
2023-03-01T07:52:06.207Z,95091.84
2023-03-01T07:54:35.753Z,95089.63
2023-03-01T07:57:03.675Z,95091.22
2023-03-01T07:59:31.608Z,95089.13
2023-03-01T08:01:59.711Z,95095.09
2023-03-01T08:04:27.729Z,95096.06
2023-03-01T08:06:55.954Z,95095.59
2023-03-01T08:09:24.381Z,95082.25
2023-03-01T08:11:53.735Z,95090.28
2023-03-01T08:14:21.687Z,95091.97
2023-03-01T08:16:51.614Z,95083.47
2023-03-01T08:19:19.851Z,95089.13
2023-03-01T08:21:47.848Z,95086.19
2023-03-01T08:24:15.851Z,95076.78
2023-03-01T08:26:43.784Z,95075.84
2023-03-01T08:29:13.105Z,95077.00
2023-03-01T08:31:42.236Z,95082.72
2023-03-01T08:34:13.771Z,95078.69
2023-03-01T08:36:43.451Z,95083.75
2023-03-01T08:39:13.086Z,95081.53
2023-03-01T08:41:41.538Z,95087.19
2023-03-01T08:44:09.946Z,95088.88
2023-03-01T08:46:41.345Z,95077.16
2023-03-01T08:49:11.495Z,95079.31
2023-03-01T08:51:39.568Z,95086.16
2023-03-01T08:54:08.735Z,95081.78
2023-03-01T08:56:36.672Z,95085.28
2023-03-01T08:59:05.149Z,95082.22
2023-03-01T09:01:33.036Z,95080.81
2023-03-01T09:04:02.433Z,95077.94
2023-03-01T09:06:33.118Z,95081.53
2023-03-01T09:09:01.826Z,95084.19
2023-03-01T09:11:30.419Z,95078.84
2023-03-01T09:13:58.349Z,95075.03
2023-03-01T09:16:26.435Z,95072.28
2023-03-01T09:18:56.393Z,95073.88
2023-03-01T09:21:39.492Z,95076.03
2023-03-01T09:24:09.496Z,95066.72
2023-03-01T09:26:37.389Z,95066.22
2023-03-01T09:29:05.339Z,95071.13
2023-03-01T09:31:33.221Z,95069.25
2023-03-01T09:34:01.118Z,95062.13
2023-03-01T09:36:30.960Z,95065.31
2023-03-01T09:39:00.953Z,95074.56
2023-03-01T09:41:40.530Z,95066.31
2023-03-01T09:44:15.879Z,95061.41
2023-03-01T09:46:47.092Z,95056.63
2023-03-01T09:49:20.616Z,95063.22
2023-03-01T09:52:02.915Z,95064.81
2023-03-01T09:54:30.938Z,95065.34
2023-03-01T09:57:08.318Z,95065.16
2023-03-01T09:59:50.076Z,95069.16
2023-03-01T10:02:28.295Z,95071.41
2023-03-01T10:05:01.313Z,95062.06
2023-03-01T10:07:38.202Z,95069.88
2023-03-01T10:10:08.459Z,95061.31
2023-03-01T10:12:39.775Z,95065.59
2023-03-01T10:15:13.670Z,95061.75
2023-03-01T10:17:46.750Z,95062.13
2023-03-01T10:20:21.802Z,95064.00
2023-03-01T10:22:53.504Z,95060.88
2023-03-01T10:25:43.709Z,95050.91
2023-03-01T10:28:19.697Z,95057.84
2023-03-01T10:30:48.004Z,95055.38
2023-03-01T10:33:22.592Z,95059.47
2023-03-01T10:35:50.543Z,95054.03
2023-03-01T10:38:21.906Z,95049.84
2023-03-01T10:40:56.162Z,95054.09
2023-03-01T10:43:24.607Z,95053.19
2023-03-01T10:45:52.937Z,95054.78
2023-03-01T10:48:25.510Z,95047.66
2023-03-01T10:51:07.462Z,95046.13
2023-03-01T10:53:39.565Z,95051.81
2023-03-01T10:56:09.440Z,95042.75
2023-03-01T10:58:38.811Z,95034.75
2023-03-01T11:01:08.888Z,95043.59
2023-03-01T11:03:38.478Z,95038.56
2023-03-01T11:06:21.591Z,95037.59
2023-03-01T11:08:52.374Z,95024.13
2023-03-01T11:11:26.228Z,95021.00
2023-03-01T11:13:58.334Z,95026.94
2023-03-01T11:16:37.555Z,95027.84
2023-03-01T11:19:17.793Z,95021.66
2023-03-01T11:21:55.358Z,95022.66
2023-03-01T11:24:31.095Z,95015.91
2023-03-01T11:27:02.064Z,95015.59
2023-03-01T11:29:43.244Z,95003.97
2023-03-01T11:32:17.500Z,95010.81
2023-03-01T11:34:51.385Z,94997.59
2023-03-01T11:37:28.481Z,95000.28
2023-03-01T11:40:05.873Z,94994.38
2023-03-01T11:42:44.791Z,94997.72
2023-03-01T11:45:14.900Z,94999.59
2023-03-01T11:48:05.970Z,94984.53
2023-03-01T11:50:41.353Z,94984.91
2023-03-01T11:53:37.309Z,94984.03
2023-03-01T11:56:22.219Z,94988.97
2023-03-01T11:59:13.189Z,94978.75
2023-03-01T12:01:59.142Z,94985.88
2023-03-01T12:04:57.025Z,94975.44
2023-03-01T12:07:35.309Z,94974.34
2023-03-01T12:10:23.986Z,94972.88
2023-03-01T12:13:26.068Z,94970.28
2023-03-01T12:16:23.042Z,94965.34
2023-03-01T12:19:23.376Z,94965.97
2023-03-01T12:22:09.816Z,94964.88
2023-03-01T12:24:50.006Z,94961.75
2023-03-01T12:27:30.854Z,94949.38
2023-03-01T12:30:11.719Z,94948.75
2023-03-01T12:32:51.127Z,94947.53
2023-03-01T12:35:42.983Z,94940.41
2023-03-01T12:38:26.452Z,94946.78
2023-03-01T12:41:13.895Z,94939.19
2023-03-01T12:43:53.452Z,94947.91
2023-03-01T12:47:13.032Z,94928.09
2023-03-01T12:49:43.958Z,94929.94
2023-03-01T12:52:19.321Z,94922.16
2023-03-01T12:54:48.379Z,94932.69
2023-03-01T12:57:23.391Z,94919.66
2023-03-01T13:00:08.708Z,94930.53
2023-03-01T13:02:44.102Z,94918.78
2023-03-01T13:05:31.332Z,94917.53
2023-03-01T13:08:08.424Z,94928.44
2023-03-01T13:10:45.164Z,94922.06
2023-03-01T13:13:22.369Z,94918.50
2023-03-01T13:15:52.197Z,94917.19
2023-03-01T13:18:33.660Z,94913.25
2023-03-01T13:21:04.373Z,94911.13
2023-03-01T13:23:36.029Z,94920.88
2023-03-01T13:26:12.324Z,94917.50
2023-03-01T13:28:51.737Z,94914.84
2023-03-01T13:32:02.750Z,94907.66
2023-03-01T13:34:59.532Z,94909.03
2023-03-01T13:37:33.034Z,94904.88
2023-03-01T13:40:07.858Z,94905.91
2023-03-01T13:42:56.156Z,94909.34
2023-03-01T13:45:38.495Z,94904.63
2023-03-01T13:48:17.290Z,94887.88
2023-03-01T13:50:52.667Z,94894.50
2023-03-01T13:53:23.788Z,94889.84
2023-03-01T13:55:55.612Z,94894.06
2023-03-01T13:58:26.212Z,94896.91
2023-03-01T14:00:59.597Z,94901.66
2023-03-01T14:03:28.625Z,94897.53
2023-03-01T14:06:14.273Z,94898.50
2023-03-01T14:08:43.441Z,94888.69
2023-03-01T14:11:27.553Z,94900.19
2023-03-01T14:14:12.689Z,94899.38
2023-03-01T14:16:48.720Z,94899.03
2023-03-01T14:19:32.602Z,94903.41
2023-03-01T14:22:12.829Z,94891.84
2023-03-01T14:24:46.665Z,94889.53
2023-03-01T14:27:15.718Z,94890.81
2023-03-01T14:29:43.774Z,94879.97
2023-03-01T14:32:14.676Z,94884.19
2023-03-01T14:34:46.982Z,94873.84
2023-03-01T14:37:24.549Z,94888.03
2023-03-01T14:39:53.783Z,94893.38
2023-03-01T14:42:24.412Z,94883.94
2023-03-01T14:44:54.864Z,94884.66
2023-03-01T14:47:29.945Z,94893.09
2023-03-01T14:50:01.949Z,94895.94
2023-03-01T14:52:37.054Z,94892.78
2023-03-01T14:55:07.766Z,94883.63
2023-03-01T14:57:35.654Z,94892.78
2023-03-01T15:00:11.423Z,94893.59
2023-03-01T15:02:40.555Z,94888.00
2023-03-01T15:05:11.019Z,94891.59
2023-03-01T15:07:49.774Z,94888.94
2023-03-01T15:10:22.805Z,94893.59
2023-03-01T15:12:53.210Z,94897.97
2023-03-01T15:15:33.583Z,94906.31
2023-03-01T15:18:03.580Z,94907.13
2023-03-01T15:20:36.325Z,94911.06
2023-03-01T15:23:06.301Z,94908.66
2023-03-01T15:25:35.581Z,94908.34
2023-03-01T15:28:04.784Z,94896.38
2023-03-01T15:30:38.404Z,94897.16
2023-03-01T15:33:30.541Z,94892.00
2023-03-01T15:35:59.745Z,94881.22
2023-03-01T15:38:35.442Z,94895.56
2023-03-01T15:41:05.169Z,94885.63
2023-03-01T15:43:42.115Z,94894.78
2023-03-01T15:46:24.565Z,94891.16
2023-03-01T15:48:55.554Z,94889.19
2023-03-01T15:51:31.815Z,94895.16
2023-03-01T15:54:04.249Z,94891.53
2023-03-01T15:56:33.351Z,94896.31
2023-03-01T15:59:03.337Z,94899.47
2023-03-01T16:01:33.190Z,94901.16
2023-03-01T16:04:01.877Z,94899.97
2023-03-01T16:06:30.029Z,94893.56
2023-03-01T16:08:58.063Z,94896.38
2023-03-01T16:11:27.321Z,94894.75
2023-03-01T16:13:55.385Z,94897.97
2023-03-01T16:16:23.662Z,94895.19
2023-03-01T16:18:53.182Z,94895.78
2023-03-01T16:21:25.281Z,94901.16
2023-03-01T16:23:54.300Z,94888.78
2023-03-01T16:26:22.319Z,94898.69
2023-03-01T16:28:51.601Z,94893.16
2023-03-01T16:31:21.387Z,94892.94
2023-03-01T16:33:52.425Z,94894.22
2023-03-01T16:36:24.444Z,94894.22
2023-03-01T16:38:52.968Z,94902.03
2023-03-01T16:41:22.860Z,94896.59
2023-03-01T16:43:52.879Z,94903.25
2023-03-01T16:46:22.687Z,94904.47
2023-03-01T16:48:51.542Z,94904.00
2023-03-01T16:51:20.212Z,94909.94
2023-03-01T16:53:48.306Z,94902.66
2023-03-01T16:56:16.888Z,94907.84
2023-03-01T16:58:45.183Z,94907.28
2023-03-01T17:01:16.945Z,94911.84
2023-03-01T17:03:45.618Z,94914.38
2023-03-01T17:06:17.454Z,94915.03
2023-03-01T17:08:45.565Z,94923.25
2023-03-01T17:11:15.544Z,94923.91
2023-03-01T17:13:44.288Z,94936.31
2023-03-01T17:16:17.048Z,94929.09
2023-03-01T17:18:45.366Z,94936.13
2023-03-01T17:21:14.382Z,94936.13
2023-03-01T17:23:45.711Z,94937.72
2023-03-01T17:26:14.330Z,94945.69
2023-03-01T17:28:43.846Z,94937.06
2023-03-01T17:31:13.129Z,94957.34
2023-03-01T17:33:42.557Z,94950.44
2023-03-01T17:36:10.484Z,94949.34
2023-03-01T17:38:38.407Z,94952.44
2023-03-01T17:41:06.679Z,94949.97
2023-03-01T17:43:35.672Z,94962.19
2023-03-01T17:46:03.733Z,94967.44
2023-03-01T17:48:31.778Z,94960.44
2023-03-01T17:51:01.235Z,94958.09
2023-03-01T17:53:30.081Z,94962.56
2023-03-01T17:56:02.464Z,94955.78
2023-03-01T17:58:30.674Z,94959.84
2023-03-01T18:01:07.716Z,94958.91
2023-03-01T18:03:35.676Z,94970.03
2023-03-01T18:06:12.113Z,94974.84
2023-03-01T18:08:40.019Z,94970.53
2023-03-01T18:11:08.838Z,94967.25
2023-03-01T18:13:36.976Z,94982.47
2023-03-01T18:16:06.946Z,94977.28
2023-03-01T18:18:34.925Z,94971.38
2023-03-01T18:21:04.961Z,94979.03
2023-03-01T18:23:33.968Z,94979.38
2023-03-01T18:26:02.794Z,94980.00
2023-03-01T18:28:32.395Z,94986.41
2023-03-01T18:31:02.823Z,94978.91
2023-03-01T18:33:31.450Z,94976.94
2023-03-01T18:35:59.872Z,94980.13
2023-03-01T18:38:30.837Z,94979.28
2023-03-01T18:40:58.988Z,94975.75
2023-03-01T18:43:28.882Z,94980.97
2023-03-01T18:45:58.769Z,94982.22
2023-03-01T18:48:27.123Z,94987.00
2023-03-01T18:50:55.115Z,94981.84
2023-03-01T18:53:23.025Z,94985.84
2023-03-01T18:55:52.290Z,94987.63
2023-03-01T18:58:20.223Z,94990.41
2023-03-01T19:00:48.164Z,94997.91
2023-03-01T19:03:16.115Z,95000.88
2023-03-01T19:05:44.049Z,94993.75
2023-03-01T19:08:11.947Z,94998.69
2023-03-01T19:10:39.880Z,94988.84
2023-03-01T19:13:09.165Z,94986.69
2023-03-01T19:15:37.169Z,94991.00
2023-03-01T19:18:06.012Z,94987.84
2023-03-01T19:20:33.908Z,94984.91
2023-03-01T19:23:01.834Z,94979.00
2023-03-01T19:25:29.712Z,94975.94
2023-03-01T19:27:57.673Z,94978.56
2023-03-01T19:30:27.254Z,94976.31
2023-03-01T19:32:55.420Z,94975.94
2023-03-01T19:35:23.651Z,94977.38
2023-03-01T19:37:51.616Z,94970.78
2023-03-01T19:40:19.606Z,94975.94
2023-03-01T19:42:47.621Z,94980.34
2023-03-01T19:45:17.964Z,94986.88
2023-03-01T19:47:50.934Z,94989.06
2023-03-01T19:50:19.322Z,94993.53
2023-03-01T19:52:47.253Z,94991.06
2023-03-01T19:55:15.301Z,94988.91
2023-03-01T19:57:43.225Z,94978.84
2023-03-01T20:00:12.256Z,94981.47
2023-03-01T20:02:42.910Z,94976.94
2023-03-01T20:05:12.339Z,94976.25
2023-03-01T20:07:40.207Z,94974.47
2023-03-01T20:10:08.873Z,94981.84
2023-03-01T20:12:37.692Z,94978.22
2023-03-01T20:15:06.945Z,94984.66
2023-03-01T20:17:34.815Z,94980.44
2023-03-01T20:20:02.847Z,94968.94
2023-03-01T20:22:32.269Z,94972.09
2023-03-01T20:25:00.159Z,94975.28
2023-03-01T20:27:28.074Z,94974.84
2023-03-01T20:29:56.226Z,94977.25
2023-03-01T20:32:24.300Z,94964.94
2023-03-01T20:34:54.571Z,94965.59
2023-03-01T20:37:23.108Z,94971.63
2023-03-01T20:39:52.419Z,94979.38
2023-03-01T20:42:20.336Z,94977.53
2023-03-01T20:44:48.245Z,94973.84
2023-03-01T20:47:17.419Z,94973.09
2023-03-01T20:49:45.307Z,94966.34
2023-03-01T20:52:13.213Z,94972.22
2023-03-01T20:54:41.144Z,94973.31
2023-03-01T20:57:10.546Z,94975.28
2023-03-01T20:59:38.453Z,94974.69
2023-03-01T21:02:06.366Z,94967.16
2023-03-01T21:04:34.324Z,94966.91
2023-03-01T21:07:02.308Z,94962.34
2023-03-01T21:09:30.193Z,94965.91
2023-03-01T21:11:58.209Z,94959.97
2023-03-01T21:14:27.589Z,94950.44
2023-03-01T21:16:55.481Z,94960.38
2023-03-01T21:19:25.804Z,94946.34
2023-03-01T21:21:53.901Z,94953.50
2023-03-01T21:24:21.796Z,94949.56
2023-03-01T21:26:49.678Z,94942.59
2023-03-01T21:29:17.592Z,94949.34
2023-03-01T21:31:46.933Z,94951.31
2023-03-01T21:34:14.877Z,94948.25
2023-03-01T21:36:43.461Z,94953.91
2023-03-01T21:39:12.770Z,94959.81
2023-03-01T21:41:40.788Z,94953.63
2023-03-01T21:44:09.162Z,94957.19
2023-03-01T21:46:39.497Z,94951.25
2023-03-01T21:49:09.449Z,94949.13
2023-03-01T21:51:38.004Z,94951.34
2023-03-01T21:54:06.857Z,94945.47
2023-03-01T21:56:38.971Z,94938.75
2023-03-01T21:59:07.999Z,94938.13
2023-03-01T22:01:35.960Z,94936.56
2023-03-01T22:04:04.441Z,94929.31
2023-03-01T22:06:38.195Z,94917.91
2023-03-01T22:09:09.536Z,94925.72
2023-03-01T22:11:40.751Z,94922.75
2023-03-01T22:14:09.650Z,94924.69
2023-03-01T22:16:38.698Z,94918.09
2023-03-01T22:19:07.519Z,94911.78
2023-03-01T22:21:39.394Z,94917.66
2023-03-01T22:24:08.861Z,94910.03
2023-03-01T22:26:39.320Z,94909.31
2023-03-01T22:29:08.933Z,94922.53
2023-03-01T22:31:37.526Z,94911.56
2023-03-01T22:34:06.581Z,94911.00
2023-03-01T22:36:36.236Z,94912.84
2023-03-01T22:39:04.544Z,94910.78
2023-03-01T22:41:35.422Z,94906.41
2023-03-01T22:44:03.701Z,94901.69
2023-03-01T22:46:32.351Z,94904.03
2023-03-01T22:49:00.388Z,94904.88
2023-03-01T22:51:31.863Z,94901.31
2023-03-01T22:54:01.566Z,94903.28
2023-03-01T22:56:32.584Z,94901.31
2023-03-01T22:59:02.485Z,94907.44
2023-03-01T23:01:31.835Z,94898.00
2023-03-01T23:03:59.876Z,94899.34
2023-03-01T23:06:30.789Z,94903.78
2023-03-01T23:09:02.078Z,94912.84
2023-03-01T23:11:30.497Z,94901.31
2023-03-01T23:14:00.027Z,94912.53
2023-03-01T23:16:28.268Z,94917.91
2023-03-01T23:18:59.086Z,94912.00
2023-03-01T23:21:27.482Z,94914.19
2023-03-01T23:23:56.186Z,94906.69
2023-03-01T23:26:26.958Z,94905.22
2023-03-01T23:28:55.927Z,94890.72
2023-03-01T23:31:25.610Z,94897.47
2023-03-01T23:33:53.605Z,94890.88
2023-03-01T23:36:23.831Z,94884.00
2023-03-01T23:38:54.240Z,94883.00
2023-03-01T23:41:24.518Z,94885.84
2023-03-01T23:43:56.409Z,94883.53
2023-03-01T23:46:26.174Z,94884.63
2023-03-01T23:48:55.220Z,94875.31
2023-03-01T23:51:24.735Z,94878.41
2023-03-01T23:53:57.520Z,94874.84
2023-03-01T23:56:27.896Z,94877.38
2023-03-01T23:58:59.290Z,94871.09
